| time (UTC) | temp C | wind direction | speed KPH | gust KPH | rain 1hr cm | rain 24hr cm | rain mn cm | humidity % | barometer mb |
| 20260507075711 | 10 | 277 | 0.0 | 0.0 | 0.00 | 0.00 | 0.00 | 47 | 1011.6 |
| 20260507075207 | 10 | 281 | 0.0 | 0.0 | 0.00 | 0.00 | 0.00 | 48 | 1011.4 |
| 20260507074703 | 10 | 280 | 0.0 | 0.0 | 0.00 | 0.00 | 0.00 | 48 | 1011.4 |
| 20260507074202 | 10 | 279 | 0.0 | 0.0 | 0.00 | 0.00 | 0.00 | 48 | 1011.6 |
| 20260507073658 | 10 | 275 | 0.0 | 0.0 | 0.00 | 0.00 | 0.00 | 48 | 1011.3 |
| 20260507073154 | 10 | 276 | 0.0 | 0.0 | 0.00 | 0.00 | 0.00 | 48 | 1011.4 |
| 20260507072652 | 10 | 277 | 0.0 | 0.0 | 0.00 | 0.00 | 0.00 | 48 | 1011.5 |
| 20260507072149 | 10 | 277 | 0.0 | 0.0 | 0.00 | 0.00 | 0.00 | 48 | 1011.2 |
| 20260507071647 | 10 | 273 | 0.0 | 0.0 | 0.00 | 0.00 | 0.00 | 47 | 1011.3 |
| 20260507071143 | 10 | 279 | 0.0 | 1.6 | 0.00 | 0.00 | 0.00 | 47 | 1011.2 |
| 20260507070640 | 10 | 281 | 0.0 | 0.0 | 0.00 | 0.00 | 0.00 | 47 | 1011.2 |
| 20260507070137 | 10 | 279 | 0.0 | 0.0 | 0.00 | 0.00 | 0.00 | 47 | 1011.2 |
| 20260507065633 | 10 | 281 | 0.0 | 0.0 | 0.00 | 0.00 | 0.00 | 47 | 1011.4 |
| 20260507065130 | 10 | 275 | 0.0 | 0.0 | 0.00 | 0.00 | 0.00 | 47 | 1011.3 |
| 20260507064628 | 10 | 281 | 0.0 | 1.6 | 0.00 | 0.00 | 0.00 | 47 | 1011.4 |
| 20260507064127 | 10 | 287 | 0.0 | 0.0 | 0.00 | 0.00 | 0.00 | 48 | 1011.3 |
| 20260507063624 | 10 | 272 | 0.0 | 0.0 | 0.00 | 0.00 | 0.00 | 47 | 1011.2 |
| 20260507063121 | 10 | 279 | 0.0 | 0.0 | 0.00 | 0.00 | 0.00 | 48 | 1011.2 |
| 20260507062617 | 10 | 276 | 0.0 | 0.0 | 0.00 | 0.00 | 0.00 | 48 | 1011.1 |
| 20260507062115 | 10 | 277 | 0.0 | 0.0 | 0.00 | 0.00 | 0.00 | 48 | 1010.8 |
| 20260507061613 | 10 | 279 | 0.0 | 0.0 | 0.00 | 0.00 | 0.00 | 47 | 1010.8 |
| 20260507061111 | 10 | 280 | 0.0 | 0.0 | 0.00 | 0.00 | 0.00 | 46 | 1010.7 |
| 20260507060608 | 10 | 283 | 0.0 | 0.0 | 0.00 | 0.00 | 0.00 | 45 | 1010.4 |
| 20260507060104 | 10 | 283 | 0.0 | 0.0 | 0.00 | 0.00 | 0.00 | 45 | 1010.4 |
| 20260507055600 | 11 | 279 | 0.0 | 0.0 | 0.00 | 0.00 | 0.00 | 45 | 1010.3 |
| 20260507055056 | 11 | 278 | 0.0 | 0.0 | 0.00 | 0.00 | 0.00 | 44 | 1010.3 |
| 20260507054552 | 11 | 278 | 0.0 | 0.0 | 0.00 | 0.00 | 0.00 | 44 | 1010.4 |
| 20260507054049 | 11 | 280 | 0.0 | 0.0 | 0.00 | 0.00 | 0.00 | 43 | 1010.3 |
| 20260507053547 | 11 | 267 | 0.0 | 0.0 | 0.00 | 0.00 | 0.00 | 44 | 1010.3 |
| 20260507053046 | 11 | 267 | 0.0 | 0.0 | 0.00 | 0.00 | 0.00 | 45 | 1010.2 |
| 20260507052543 | 11 | 267 | 0.0 | 0.0 | 0.00 | 0.00 | 0.00 | 44 | 1010.2 |
| 20260507052039 | 11 | 267 | 0.0 | 0.0 | 0.00 | 0.00 | 0.00 | 43 | 1010.2 |
| 20260507051537 | 11 | 267 | 0.0 | 0.0 | 0.00 | 0.00 | 0.00 | 44 | 1010.1 |
| 20260507051034 | 11 | 266 | 0.0 | 0.0 | 0.00 | 0.00 | 0.00 | 43 | 1010.1 |
| 20260507050530 | 11 | 267 | 0.0 | 0.0 | 0.00 | 0.00 | 0.00 | 42 | 1010.1 |
| 20260507050027 | 12 | 267 | 0.0 | 0.0 | 0.00 | 0.00 | 0.00 | 41 | 1010.2 |
| 20260507045524 | 12 | 260 | 0.0 | 1.6 | 0.00 | 0.00 | 0.00 | 41 | 1009.9 |
| 20260507045021 | 11 | 281 | 0.0 | 1.6 | 0.00 | 0.00 | 0.00 | 41 | 1010.1 |
| 20260507044518 | 11 | 278 | 0.0 | 0.0 | 0.00 | 0.00 | 0.00 | 42 | 1009.8 |
| 20260507044014 | 11 | 280 | 0.0 | 0.0 | 0.00 | 0.00 | 0.00 | 43 | 1009.7 |
| 20260507043510 | 11 | 293 | 0.0 | 0.0 | 0.00 | 0.00 | 0.00 | 42 | 1009.8 |
| 20260507043008 | 12 | 278 | 0.0 | 0.0 | 0.00 | 0.00 | 0.00 | 42 | 1009.4 |
| 20260507042504 | 12 | 278 | 0.0 | 1.6 | 0.00 | 0.00 | 0.00 | 41 | 1009.6 |
| 20260507041959 | 12 | 271 | 0.0 | 0.0 | 0.00 | 0.00 | 0.00 | 40 | 1009.6 |
| 20260507041456 | 12 | 269 | 0.0 | 0.0 | 0.00 | 0.00 | 0.00 | 40 | 1009.6 |
| 20260507040953 | 13 | 43 | 0.0 | 1.6 | 0.00 | 0.00 | 0.00 | 39 | 1009.3 |
| 20260507040449 | 13 | 65 | 1.6 | 3.2 | 0.00 | 0.00 | 0.00 | 39 | 1009.3 |
| 20260507035945 | 13 | 126 | 1.6 | 4.8 | 0.00 | 0.00 | 0.00 | 40 | 1009.2 |
| 20260507035442 | 13 | 83 | 1.6 | 4.8 | 0.00 | 0.00 | 0.00 | 38 | 1009.2 |
| 20260507034939 | 13 | 12 | 0.0 | 3.2 | 0.00 | 0.00 | 0.00 | 38 | 1009.1 |
| 20260507034435 | 13 | 94 | 0.0 | 3.2 | 0.00 | 0.00 | 0.00 | 38 | 1008.8 |
| 20260507033934 | 14 | 68 | 6.4 | 11.3 | 0.00 | 0.00 | 0.00 | 37 | 1008.6 |
| 20260507033431 | 14 | 66 | 4.8 | 8.0 | 0.00 | 0.00 | 0.00 | 38 | 1008.5 |
| 20260507032928 | 15 | 71 | 3.2 | 9.7 | 0.00 | 0.00 | 0.00 | 37 | 1008.4 |
| 20260507032425 | 15 | 117 | 1.6 | 9.7 | 0.00 | 0.00 | 0.00 | 36 | 1008.5 |
| 20260507031921 | 15 | 183 | 1.6 | 4.8 | 0.00 | 0.00 | 0.00 | 36 | 1008.4 |
| 20260507031418 | 15 | 50 | 3.2 | 12.9 | 0.00 | 0.00 | 0.00 | 34 | 1008.2 |
| 20260507030914 | 16 | 89 | 4.8 | 12.9 | 0.00 | 0.00 | 0.00 | 34 | 1008.2 |
| 20260507030412 | 16 | 66 | 4.8 | 8.0 | 0.00 | 0.00 | 0.00 | 34 | 1007.9 |
| 20260507025908 | 16 | 94 | 4.8 | 14.5 | 0.00 | 0.00 | 0.00 | 34 | 1007.9 |
| 20260507025406 | 17 | 74 | 8.0 | 12.9 | 0.00 | 0.00 | 0.00 | 34 | 1007.8 |
| 20260507024904 | 17 | 101 | 1.6 | 4.8 | 0.00 | 0.00 | 0.00 | 34 | 1007.7 |
| 20260507024401 | 17 | 86 | 1.6 | 3.2 | 0.00 | 0.00 | 0.00 | 33 | 1007.6 |
| 20260507023856 | 17 | 244 | 1.6 | 4.8 | 0.00 | 0.00 | 0.00 | 33 | 1007.4 |
| 20260507023353 | 17 | 104 | 3.2 | 11.3 | 0.00 | 0.00 | 0.00 | 32 | 1007.6 |
| 20260507022851 | 17 | 115 | 3.2 | 9.7 | 0.00 | 0.00 | 0.00 | 32 | 1007.5 |
| 20260507022347 | 18 | 194 | 1.6 | 3.2 | 0.00 | 0.00 | 0.00 | 32 | 1007.3 |
| 20260507021843 | 18 | 122 | 4.8 | 4.8 | 0.00 | 0.00 | 0.00 | 31 | 1007.4 |
| 20260507021338 | 18 | 65 | 1.6 | 3.2 | 0.00 | 0.00 | 0.00 | 31 | 1007.3 |
| 20260507020837 | 18 | 163 | 1.6 | 3.2 | 0.00 | 0.00 | 0.00 | 30 | 1007.1 |
| 20260507020333 | 18 | 268 | 1.6 | 4.8 | 0.00 | 0.00 | 0.00 | 30 | 1006.8 |
| 20260507015830 | 19 | 172 | 1.6 | 1.6 | 0.00 | 0.00 | 0.00 | 31 | 1007.1 |
| 20260507015328 | 19 | 286 | 1.6 | 3.2 | 0.00 | 0.00 | 0.00 | 30 | 1006.9 |
| 20260507014825 | 19 | 44 | 0.0 | 3.2 | 0.00 | 0.00 | 0.00 | 31 | 1006.7 |
| 20260507014321 | 18 | 265 | 1.6 | 4.8 | 0.00 | 0.00 | 0.00 | 31 | 1006.8 |
| 20260507013818 | 19 | 273 | 3.2 | 4.8 | 0.00 | 0.00 | 0.00 | 30 | 1006.9 |
| 20260507013315 | 19 | 346 | 1.6 | 1.6 | 0.00 | 0.00 | 0.00 | 30 | 1006.6 |
| 20260507012807 | 19 | 241 | 0.0 | 3.2 | 0.00 | 0.00 | 0.00 | 31 | 1006.5 |
| 20260507012306 | 19 | 253 | 0.0 | 1.6 | 0.00 | 0.00 | 0.00 | 31 | 1006.7 |
| 20260507011800 | 19 | 326 | 4.8 | 8.0 | 0.00 | 0.00 | 0.00 | 30 | 1006.7 |
| 20260507011257 | 20 | 44 | 1.6 | 4.8 | 0.00 | 0.00 | 0.00 | 31 | 1006.5 |
| 20260507010756 | 20 | 233 | 1.6 | 3.2 | 0.00 | 0.00 | 0.00 | 29 | 1006.5 |
| 20260507010252 | 20 | 247 | 0.0 | 1.6 | 0.00 | 0.00 | 0.00 | 29 | 1006.4 |
| 20260507005750 | 20 | 254 | 0.0 | 3.2 | 0.00 | 0.00 | 0.00 | 29 | 1006.2 |
| 20260507005246 | 20 | 37 | 0.0 | 1.6 | 0.00 | 0.00 | 0.00 | 28 | 1006.4 |
| 20260507004743 | 20 | 289 | 1.6 | 3.2 | 0.00 | 0.00 | 0.00 | 28 | 1006.4 |
| 20260507004241 | 20 | 261 | 0.0 | 0.0 | 0.00 | 0.00 | 0.00 | 28 | 1006.6 |
| 20260507003736 | 20 | 248 | 0.0 | 4.8 | 0.00 | 0.00 | 0.00 | 28 | 1006.3 |
| 20260507003232 | 20 | 223 | 0.0 | 1.6 | 0.00 | 0.00 | 0.00 | 28 | 1006.4 |
| 20260507002728 | 20 | 273 | 0.0 | 1.6 | 0.00 | 0.00 | 0.00 | 28 | 1006.2 |
| 20260507002225 | 20 | 131 | 1.6 | 1.6 | 0.00 | 0.00 | 0.00 | 27 | 1006.2 |
| 20260507001721 | 21 | 211 | 1.6 | 3.2 | 0.00 | 0.00 | 0.00 | 26 | 1006.1 |
| 20260507001218 | 21 | 265 | 0.0 | 3.2 | 0.00 | 0.00 | 0.00 | 27 | 1005.9 |
| 20260507000715 | 21 | 163 | 1.6 | 9.7 | 0.00 | 0.00 | 0.00 | 27 | 1005.8 |
| 20260507000212 | 21 | 271 | 1.6 | 8.0 | 0.00 | 0.00 | 0.00 | 27 | 1005.8 |
| 20260506235708 | 21 | 62 | 1.6 | 3.2 | 0.00 | 0.00 | 0.00 | 26 | 1005.9 |
| 20260506235203 | 21 | 271 | 0.0 | 1.6 | 0.00 | 0.00 | 0.00 | 26 | 1005.6 |
| 20260506234700 | 21 | 127 | 3.2 | 9.7 | 0.00 | 0.00 | 0.00 | 25 | 1005.7 |
| 20260506234157 | 21 | 141 | 0.0 | 3.2 | 0.00 | 0.00 | 0.00 | 26 | 1005.8 |
| 20260506233655 | 22 | 188 | 4.8 | 4.8 | 0.00 | 0.00 | 0.00 | 28 | 1005.9 |
| 20260506233151 | 22 | 271 | 0.0 | 3.2 | 0.00 | 0.00 | 0.00 | 25 | 1005.7 |
| 20260506232647 | 22 | 289 | 0.0 | 4.8 | 0.00 | 0.00 | 0.00 | 25 | 1005.9 |
| 20260506232143 | 22 | 36 | 3.2 | 3.2 | 0.00 | 0.00 | 0.00 | 24 | 1005.9 |
| 20260506231640 | 23 | 272 | 0.0 | 3.2 | 0.00 | 0.00 | 0.00 | 26 | 1005.9 |
| 20260506231139 | 22 | 101 | 0.0 | 3.2 | 0.00 | 0.00 | 0.00 | 25 | 1005.9 |
| 20260506230635 | 22 | 2 | 1.6 | 8.0 | 0.00 | 0.00 | 0.00 | 24 | 1005.7 |
| 20260506230132 | 22 | 341 | 1.6 | 4.8 | 0.00 | 0.00 | 0.00 | 24 | 1005.9 |
| 20260506225629 | 22 | 259 | 1.6 | 3.2 | 0.00 | 0.00 | 0.00 | 25 | 1006.1 |
| 20260506225125 | 22 | 280 | 0.0 | 4.8 | 0.00 | 0.00 | 0.00 | 24 | 1005.9 |
| 20260506224622 | 22 | 243 | 1.6 | 8.0 | 0.00 | 0.00 | 0.00 | 25 | 1006.3 |
| 20260506224118 | 22 | 126 | 1.6 | 4.8 | 0.00 | 0.00 | 0.00 | 24 | 1006.2 |
| 20260506223615 | 23 | 129 | 4.8 | 8.0 | 0.00 | 0.00 | 0.00 | 23 | 1006.3 |
| 20260506223111 | 22 | 281 | 1.6 | 4.8 | 0.00 | 0.00 | 0.00 | 26 | 1006.2 |
| 20260506222608 | 21 | 110 | 4.8 | 4.8 | 0.00 | 0.00 | 0.00 | 25 | 1006.4 |
| 20260506222104 | 22 | 110 | 3.2 | 4.8 | 0.00 | 0.00 | 0.00 | 24 | 1006.4 |
| 20260506221602 | 22 | 280 | 3.2 | 3.2 | 0.00 | 0.00 | 0.00 | 25 | 1006.4 |
| 20260506221100 | 23 | 128 | 1.6 | 3.2 | 0.00 | 0.00 | 0.00 | 24 | 1006.4 |
| 20260506220556 | 22 | 152 | 1.6 | 9.7 | 0.00 | 0.00 | 0.00 | 23 | 1006.5 |
| 20260506220051 | 23 | 75 | 8.0 | 11.3 | 0.00 | 0.00 | 0.00 | 23 | 1006.5 |
| 20260506215548 | 22 | 155 | 1.6 | 4.8 | 0.00 | 0.00 | 0.00 | 28 | 1006.5 |
| 20260506215044 | 22 | 79 | 1.6 | 3.2 | 0.00 | 0.00 | 0.00 | 26 | 1006.4 |
| 20260506214541 | 22 | 96 | 3.2 | 9.7 | 0.00 | 0.00 | 0.00 | 24 | 1006.6 |
| 20260506214038 | 22 | 97 | 8.0 | 12.9 | 0.00 | 0.00 | 0.00 | 24 | 1006.5 |
| 20260506213536 | 22 | 114 | 1.6 | 8.0 | 0.00 | 0.00 | 0.00 | 26 | 1006.7 |
| 20260506213033 | 21 | 56 | 1.6 | 3.2 | 0.00 | 0.00 | 0.00 | 26 | 1006.6 |
| 20260506212530 | 21 | 79 | 8.0 | 9.7 | 0.00 | 0.00 | 0.00 | 24 | 1006.7 |
| 20260506212025 | 21 | 101 | 1.6 | 4.8 | 0.00 | 0.00 | 0.00 | 26 | 1006.7 |
| 20260506211521 | 21 | 168 | 3.2 | 4.8 | 0.00 | 0.00 | 0.00 | 26 | 1006.7 |
| 20260506211019 | 21 | 24 | 1.6 | 4.8 | 0.00 | 0.00 | 0.00 | 26 | 1006.8 |
| 20260506210515 | 22 | 161 | 1.6 | 3.2 | 0.00 | 0.00 | 0.00 | 25 | 1006.9 |
| 20260506210011 | 21 | 299 | 0.0 | 0.0 | 0.00 | 0.00 | 0.00 | 24 | 1006.7 |
| 20260506205508 | 22 | 178 | 0.0 | 1.6 | 0.00 | 0.00 | 0.00 | 25 | 1006.9 |
| 20260506205003 | 22 | 266 | 0.0 | 3.2 | 0.00 | 0.00 | 0.00 | 24 | 1006.9 |
| 20260506204502 | 22 | 143 | 1.6 | 4.8 | 0.00 | 0.00 | 0.00 | 25 | 1006.7 |
| 20260506203959 | 22 | 309 | 3.2 | 9.7 | 0.00 | 0.00 | 0.00 | 25 | 1006.7 |
| 20260506203456 | 23 | 112 | 4.8 | 11.3 | 0.00 | 0.00 | 0.00 | 25 | 1006.9 |
| 20260506202952 | 23 | 246 | 1.6 | 3.2 | 0.00 | 0.00 | 0.00 | 24 | 1006.9 |
| 20260506202450 | 23 | 112 | 3.2 | 4.8 | 0.00 | 0.00 | 0.00 | 24 | 1006.9 |
| 20260506201946 | 22 | 92 | 4.8 | 4.8 | 0.00 | 0.00 | 0.00 | 24 | 1007.1 |
| 20260506201444 | 22 | 287 | 3.2 | 4.8 | 0.00 | 0.00 | 0.00 | 22 | 1007.2 |
| 20260506200940 | 22 | 151 | 4.8 | 4.8 | 0.00 | 0.00 | 0.00 | 23 | 1007.1 |
| 20260506200436 | 23 | 222 | 1.6 | 3.2 | 0.00 | 0.00 | 0.00 | 22 | 1007.2 |
| 20260506195933 | 23 | 75 | 3.2 | 3.2 | 0.00 | 0.00 | 0.00 | 23 | 1007.3 |
| 20260506195430 | 22 | 218 | 0.0 | 3.2 | 0.00 | 0.00 | 0.00 | 26 | 1007.6 |
| 20260506194926 | 22 | 177 | 1.6 | 3.2 | 0.00 | 0.00 | 0.00 | 26 | 1007.6 |
| 20260506194424 | 21 | 76 | 4.8 | 9.7 | 0.00 | 0.00 | 0.00 | 24 | 1007.6 |
| 20260506193921 | 21 | 232 | 0.0 | 8.0 | 0.00 | 0.00 | 0.00 | 25 | 1007.5 |
| 20260506193418 | 20 | 128 | 3.2 | 4.8 | 0.00 | 0.00 | 0.00 | 25 | 1007.6 |
| 20260506192914 | 20 | 95 | 3.2 | 4.8 | 0.00 | 0.00 | 0.00 | 27 | 1007.8 |
| 20260506192411 | 21 | 216 | 3.2 | 3.2 | 0.00 | 0.00 | 0.00 | 27 | 1007.8 |
| 20260506191908 | 20 | 77 | 6.4 | 8.0 | 0.00 | 0.00 | 0.00 | 24 | 1007.7 |
| 20260506191404 | 20 | 296 | 0.0 | 8.0 | 0.00 | 0.00 | 0.00 | 25 | 1008.1 |
| 20260506190901 | 20 | 213 | 1.6 | 3.2 | 0.00 | 0.00 | 0.00 | 25 | 1008.2 |
| 20260506190357 | 20 | 93 | 4.8 | 11.3 | 0.00 | 0.00 | 0.00 | 26 | 1008.1 |
| 20260506185855 | 20 | 110 | 3.2 | 4.8 | 0.00 | 0.00 | 0.00 | 27 | 1008.1 |
| 20260506185352 | 20 | 283 | 1.6 | 3.2 | 0.00 | 0.00 | 0.00 | 24 | 1008.1 |
| 20260506184849 | 20 | 183 | 1.6 | 4.8 | 0.00 | 0.00 | 0.00 | 27 | 1008.5 |
| 20260506184345 | 19 | 261 | 0.0 | 3.2 | 0.00 | 0.00 | 0.00 | 28 | 1008.4 |
| 20260506183843 | 20 | 77 | 6.4 | 11.3 | 0.00 | 0.00 | 0.00 | 27 | 1008.4 |
| 20260506183338 | 19 | 63 | 1.6 | 4.8 | 0.00 | 0.00 | 0.00 | 29 | 1008.3 |
| 20260506182836 | 19 | 79 | 4.8 | 4.8 | 0.00 | 0.00 | 0.00 | 26 | 1008.5 |
| 20260506182333 | 19 | 77 | 6.4 | 8.0 | 0.00 | 0.00 | 0.00 | 27 | 1008.5 |
| 20260506181830 | 19 | 68 | 1.6 | 4.8 | 0.00 | 0.00 | 0.00 | 29 | 1008.5 |
| 20260506181328 | 18 | 128 | 1.6 | 3.2 | 0.00 | 0.00 | 0.00 | 29 | 1009.1 |
| 20260506180825 | 19 | 218 | 1.6 | 8.0 | 0.00 | 0.00 | 0.00 | 31 | 1008.9 |
| 20260506180321 | 18 | 262 | 1.6 | 3.2 | 0.00 | 0.00 | 0.00 | 30 | 1009.1 |
| 20260506175817 | 18 | 91 | 4.8 | 8.0 | 0.00 | 0.00 | 0.00 | 29 | 1009.1 |
| 20260506175314 | 18 | 110 | 3.2 | 4.8 | 0.00 | 0.00 | 0.00 | 30 | 1008.9 |
| 20260506174812 | 17 | 226 | 1.6 | 4.8 | 0.00 | 0.00 | 0.00 | 35 | 1009.2 |
| 20260506174309 | 17 | 74 | 3.2 | 3.2 | 0.00 | 0.00 | 0.00 | 31 | 1009.4 |
| 20260506173806 | 16 | 71 | 4.8 | 9.7 | 0.00 | 0.00 | 0.00 | 32 | 1009.3 |
| 20260506173303 | 16 | 187 | 3.2 | 3.2 | 0.00 | 0.00 | 0.00 | 35 | 1009.5 |
| 20260506172800 | 17 | 91 | 4.8 | 8.0 | 0.00 | 0.00 | 0.00 | 32 | 1009.4 |
| 20260506172256 | 17 | 147 | 1.6 | 8.0 | 0.00 | 0.00 | 0.00 | 33 | 1009.4 |
| 20260506171754 | 16 | 107 | 1.6 | 3.2 | 0.00 | 0.00 | 0.00 | 34 | 1009.7 |
| 20260506171251 | 16 | 127 | 1.6 | 9.7 | 0.00 | 0.00 | 0.00 | 34 | 1009.8 |
| 20260506170749 | 16 | 155 | 1.6 | 4.8 | 0.00 | 0.00 | 0.00 | 35 | 1009.8 |
| 20260506170245 | 16 | 142 | 1.6 | 3.2 | 0.00 | 0.00 | 0.00 | 36 | 1009.9 |
| 20260506165743 | 16 | 251 | 1.6 | 1.6 | 0.00 | 0.00 | 0.00 | 33 | 1009.8 |
| 20260506165240 | 15 | 225 | 0.0 | 3.2 | 0.00 | 0.00 | 0.00 | 36 | 1009.8 |
| 20260506164737 | 15 | 190 | 1.6 | 4.8 | 0.00 | 0.00 | 0.00 | 38 | 1010.1 |
| 20260506164234 | 15 | 263 | 1.6 | 3.2 | 0.00 | 0.00 | 0.00 | 33 | 1010.1 |
| 20260506163731 | 15 | 150 | 1.6 | 3.2 | 0.00 | 0.00 | 0.00 | 36 | 1010.3 |
| 20260506163226 | 14 | 260 | 3.2 | 3.2 | 0.00 | 0.00 | 0.00 | 35 | 1010.3 |
| 20260506162722 | 14 | 108 | 3.2 | 3.2 | 0.00 | 0.00 | 0.00 | 36 | 1010.4 |
| 20260506162220 | 15 | 43 | 1.6 | 3.2 | 0.00 | 0.00 | 0.00 | 34 | 1010.4 |
| 20260506161717 | 13 | 164 | 1.6 | 1.6 | 0.00 | 0.00 | 0.00 | 37 | 1010.6 |
| 20260506161214 | 13 | 261 | 0.0 | 3.2 | 0.00 | 0.00 | 0.00 | 37 | 1010.5 |
| 20260506160712 | 12 | 78 | 0.0 | 1.6 | 0.00 | 0.00 | 0.00 | 39 | 1010.4 |
| 20260506160208 | 12 | 62 | 0.0 | 3.2 | 0.00 | 0.00 | 0.00 | 39 | 1010.6 |
| 20260506155707 | 12 | 61 | 1.6 | 3.2 | 0.00 | 0.00 | 0.00 | 39 | 1010.8 |
| 20260506155203 | 12 | 68 | 0.0 | 3.2 | 0.00 | 0.00 | 0.00 | 40 | 1010.8 |
| 20260506153305 | 11 | 81 | 1.6 | 3.2 | 0.00 | 0.00 | 0.00 | 41 | 1011.3 |
| 20260506152802 | 10 | 251 | 3.2 | 3.2 | 0.00 | 0.00 | 0.00 | 42 | 1011.2 |
| 20260506152259 | 11 | 317 | 0.0 | 1.6 | 0.00 | 0.00 | 0.00 | 40 | 1011.2 |
| 20260506151758 | 10 | 234 | 0.0 | 1.6 | 0.00 | 0.00 | 0.00 | 41 | 1011.4 |
| 20260506151254 | 10 | 209 | 0.0 | 0.0 | 0.00 | 0.00 | 0.00 | 43 | 1011.5 |
| 20260506150751 | 9 | 245 | 1.6 | 1.6 | 0.00 | 0.00 | 0.00 | 43 | 1011.5 |
| 20260506150248 | 9 | 276 | 0.0 | 0.0 | 0.00 | 0.00 | 0.00 | 43 | 1011.5 |
| 20260506145745 | 8 | 288 | 1.6 | 1.6 | 0.00 | 0.00 | 0.00 | 43 | 1011.6 |
| 20260506145241 | 8 | 262 | 0.0 | 0.0 | 0.00 | 0.00 | 0.00 | 46 | 1011.4 |
| 20260506144739 | 7 | 316 | 0.0 | 1.6 | 0.00 | 0.00 | 0.00 | 46 | 1011.6 |
| 20260506144236 | 7 | 283 | 0.0 | 1.6 | 0.00 | 0.00 | 0.00 | 47 | 1011.7 |
| 20260506143733 | 7 | 302 | 0.0 | 1.6 | 0.00 | 0.00 | 0.00 | 48 | 1012.1 |
| 20260506143231 | 7 | 281 | 0.0 | 1.6 | 0.00 | 0.00 | 0.00 | 48 | 1011.8 |
| 20260506142729 | 6 | 287 | 0.0 | 1.6 | 0.00 | 0.00 | 0.00 | 48 | 1011.8 |
| 20260506142227 | 6 | 268 | 0.0 | 1.6 | 0.00 | 0.00 | 0.00 | 49 | 1011.9 |
| 20260506141725 | 5 | 287 | 0.0 | 1.6 | 0.00 | 0.00 | 0.00 | 50 | 1012.1 |
| 20260506141223 | 5 | 271 | 0.0 | 1.6 | 0.00 | 0.00 | 0.00 | 50 | 1012.3 |
| 20260506140720 | 5 | 283 | 0.0 | 1.6 | 0.00 | 0.00 | 0.00 | 51 | 1012.2 |
| 20260506140217 | 5 | 298 | 0.0 | 1.6 | 0.00 | 0.00 | 0.00 | 53 | 1012.1 |
| 20260506135714 | 4 | 249 | 0.0 | 1.6 | 0.00 | 0.00 | 0.00 | 53 | 1012.2 |
| 20260506135210 | 3 | 311 | 0.0 | 3.2 | 0.00 | 0.00 | 0.00 | 54 | 1012.2 |
| 20260506134707 | 3 | 354 | 0.0 | 1.6 | 0.00 | 0.00 | 0.00 | 53 | 1012.3 |
| 20260506134203 | 3 | 274 | 0.0 | 0.0 | 0.00 | 0.00 | 0.00 | 55 | 1012.3 |
| 20260506133701 | 3 | 268 | 0.0 | 0.0 | 0.00 | 0.00 | 0.00 | 55 | 1012.4 |
| 20260506133157 | 3 | 280 | 0.0 | 1.6 | 0.00 | 0.00 | 0.00 | 56 | 1012.4 |
| 20260506132654 | 3 | 290 | 0.0 | 1.6 | 0.00 | 0.00 | 0.00 | 57 | 1012.6 |
| 20260506132151 | 2 | 270 | 0.0 | 0.0 | 0.00 | 0.00 | 0.00 | 60 | 1012.5 |
| 20260506131649 | 2 | 278 | 0.0 | 0.0 | 0.00 | 0.00 | 0.00 | 59 | 1012.6 |
| 20260506131145 | 2 | 289 | 0.0 | 0.0 | 0.00 | 0.00 | 0.00 | 58 | 1012.3 |
| 20260506130642 | 2 | 279 | 0.0 | 0.0 | 0.00 | 0.00 | 0.00 | 57 | 1012.4 |
| 20260506130139 | 1 | 279 | 0.0 | 0.0 | 0.00 | 0.00 | 0.00 | 61 | 1012.3 |
| 20260506125637 | 0 | 277 | 0.0 | 0.0 | 0.00 | 0.00 | 0.00 | 65 | 1012.7 |
| 20260506125134 | 0 | 278 | 0.0 | 0.0 | 0.00 | 0.00 | 0.00 | 64 | 1012.4 |
| 20260506124632 | 0 | 285 | 0.0 | 0.0 | 0.00 | 0.00 | 0.00 | 64 | 1012.6 |
| 20260506124130 | 0 | 279 | 0.0 | 0.0 | 0.00 | 0.00 | 0.00 | 65 | 1012.6 |
| 20260506123627 | -1 | 282 | 0.0 | 0.0 | 0.00 | 0.00 | 0.00 | 67 | 1012.6 |
| 20260506123126 | -1 | 285 | 0.0 | 0.0 | 0.00 | 0.00 | 0.00 | 68 | 1012.5 |
| 20260506122622 | -1 | 282 | 0.0 | 0.0 | 0.00 | 0.00 | 0.00 | 69 | 1012.5 |
| 20260506122120 | -1 | 283 | 0.0 | 0.0 | 0.00 | 0.00 | 0.00 | 69 | 1012.5 |
| 20260506121617 | -1 | 280 | 0.0 | 0.0 | 0.00 | 0.00 | 0.00 | 69 | 1012.5 |
| 20260506121114 | -1 | 279 | 0.0 | 0.0 | 0.00 | 0.00 | 0.00 | 69 | 1012.7 |
| 20260506120612 | -1 | 281 | 0.0 | 0.0 | 0.00 | 0.00 | 0.00 | 70 | 1012.8 |
| 20260506120109 | -1 | 281 | 0.0 | 0.0 | 0.00 | 0.00 | 0.00 | 70 | 1012.6 |
| 20260506115607 | -1 | 281 | 0.0 | 0.0 | 0.00 | 0.00 | 0.00 | 71 | 1012.7 |
| 20260506115105 | -1 | 281 | 0.0 | 0.0 | 0.00 | 0.00 | 0.00 | 71 | 1012.8 |
| 20260506114602 | -1 | 283 | 0.0 | 0.0 | 0.00 | 0.00 | 0.00 | 70 | 1012.8 |
| 20260506114100 | -1 | 292 | 0.0 | 0.0 | 0.00 | 0.00 | 0.00 | 70 | 1013.0 |
| 20260506113558 | -1 | 279 | 0.0 | 0.0 | 0.00 | 0.00 | 0.00 | 70 | 1013.2 |
| 20260506113055 | -1 | 275 | 0.0 | 0.0 | 0.00 | 0.00 | 0.00 | 70 | 1013.1 |
| 20260506112551 | -1 | 266 | 0.0 | 0.0 | 0.00 | 0.00 | 0.00 | 70 | 1013.2 |
| 20260506112049 | -1 | 282 | 0.0 | 0.0 | 0.00 | 0.00 | 0.00 | 69 | 1013.2 |
| 20260506111546 | -1 | 281 | 0.0 | 0.0 | 0.00 | 0.00 | 0.00 | 69 | 1013.2 |
| 20260506111043 | -1 | 281 | 0.0 | 0.0 | 0.00 | 0.00 | 0.00 | 69 | 1013.3 |
| 20260506110541 | -1 | 280 | 0.0 | 0.0 | 0.00 | 0.00 | 0.00 | 68 | 1013.4 |
| 20260506110038 | -1 | 278 | 0.0 | 0.0 | 0.00 | 0.00 | 0.00 | 68 | 1013.4 |
| 20260506105534 | -1 | 286 | 0.0 | 0.0 | 0.00 | 0.00 | 0.00 | 67 | 1013.5 |
| 20260506105032 | -1 | 285 | 0.0 | 0.0 | 0.00 | 0.00 | 0.00 | 66 | 1013.4 |
| 20260506104529 | -1 | 289 | 0.0 | 0.0 | 0.00 | 0.00 | 0.00 | 66 | 1013.5 |
| 20260506104027 | -1 | 285 | 0.0 | 0.0 | 0.00 | 0.00 | 0.00 | 66 | 1013.4 |
| 20260506103524 | -1 | 284 | 0.0 | 0.0 | 0.00 | 0.00 | 0.00 | 65 | 1013.7 |
| 20260506103021 | -1 | 284 | 0.0 | 0.0 | 0.00 | 0.00 | 0.00 | 65 | 1013.7 |
| 20260506102520 | -1 | 286 | 0.0 | 0.0 | 0.00 | 0.00 | 0.00 | 65 | 1013.7 |
| 20260506102017 | 0 | 286 | 0.0 | 0.0 | 0.00 | 0.00 | 0.00 | 64 | 1013.8 |
| 20260506101513 | 0 | 287 | 0.0 | 0.0 | 0.00 | 0.00 | 0.00 | 63 | 1013.8 |
| 20260506101010 | 0 | 295 | 0.0 | 0.0 | 0.00 | 0.00 | 0.00 | 61 | 1014.1 |
| 20260506100509 | 0 | 289 | 0.0 | 0.0 | 0.00 | 0.00 | 0.00 | 60 | 1014.1 |
| 20260506100007 | 0 | 280 | 0.0 | 0.0 | 0.00 | 0.00 | 0.00 | 59 | 1014.2 |
| 20260506095505 | 0 | 292 | 0.0 | 0.0 | 0.00 | 0.00 | 0.00 | 60 | 1014.2 |
| 20260506095000 | 0 | 308 | 0.0 | 0.0 | 0.00 | 0.00 | 0.00 | 60 | 1014.4 |
| 20260506094459 | 0 | 267 | 0.0 | 1.6 | 0.00 | 0.00 | 0.00 | 59 | 1014.5 |
| 20260506093956 | 0 | 294 | 0.0 | 0.0 | 0.00 | 0.00 | 0.00 | 58 | 1014.5 |
| 20260506093454 | 0 | 272 | 0.0 | 1.6 | 0.00 | 0.00 | 0.00 | 58 | 1014.6 |
| 20260506092952 | 0 | 256 | 0.0 | 0.0 | 0.00 | 0.00 | 0.00 | 58 | 1014.7 |
| 20260506092449 | 0 | 295 | 0.0 | 0.0 | 0.00 | 0.00 | 0.00 | 58 | 1014.7 |
| 20260506091945 | 0 | 161 | 0.0 | 0.0 | 0.00 | 0.00 | 0.00 | 57 | 1014.7 |
| 20260506091444 | 0 | 287 | 0.0 | 0.0 | 0.00 | 0.00 | 0.00 | 56 | 1014.8 |
| 20260506090941 | 0 | 245 | 0.0 | 0.0 | 0.00 | 0.00 | 0.00 | 56 | 1015.1 |
| 20260506090439 | 0 | 290 | 0.0 | 3.2 | 0.00 | 0.00 | 0.00 | 56 | 1015.0 |
| 20260506085935 | 0 | 286 | 0.0 | 0.0 | 0.00 | 0.00 | 0.00 | 56 | 1015.1 |
| 20260506085432 | 1 | 245 | 0.0 | 1.6 | 0.00 | 0.00 | 0.00 | 55 | 1014.8 |
| 20260506084928 | 1 | 283 | 0.0 | 1.6 | 0.00 | 0.00 | 0.00 | 54 | 1015.2 |
| 20260506084425 | 1 | 301 | 0.0 | 1.6 | 0.00 | 0.00 | 0.00 | 54 | 1015.4 |
| 20260506083916 | 0 | 270 | 0.0 | 1.6 | 0.00 | 0.00 | 0.00 | 55 | 1015.3 |
| 20260506083413 | 0 | 271 | 0.0 | 1.6 | 0.00 | 0.00 | 0.00 | 56 | 1015.6 |
| 20260506082911 | 0 | 280 | 0.0 | 0.0 | 0.00 | 0.00 | 0.00 | 56 | 1015.3 |
| 20260506082407 | 1 | 289 | 0.0 | 1.6 | 0.00 | 0.00 | 0.00 | 55 | 1015.4 |
| 20260506081903 | 1 | 302 | 0.0 | 0.0 | 0.00 | 0.00 | 0.00 | 56 | 1015.6 |
| 20260506081402 | 1 | 291 | 0.0 | 0.0 | 0.00 | 0.00 | 0.00 | 55 | 1015.8 |
| 20260506080859 | 1 | 269 | 0.0 | 1.6 | 0.00 | 0.00 | 0.00 | 55 | 1015.4 |
| 20260506080355 | 1 | 271 | 0.0 | 0.0 | 0.00 | 0.00 | 0.00 | 56 | 1015.8 |